Greenfield, Minnesota
Current Conditions -  °F | °C
As of 3:35 PM on Saturday 25 Oct 2014 (Local Time) from KCFE Reporting Station
Clear Clear  
Wind Chill: 62°   Ceiling: Unl
Heat Index: 62°   Visibility: 10mi
Dew Point: 25°   Wind: 9mph
Humidity: 24%   Direction: 290°WNW
Pressure: 30.05"   Gusts: 20mph
Location:  45.1192°N, 93.7982°W
Report Text: KCFE 252035Z AUTO 29008G17KT 10SM CLR 17/M04 A3005 RMK AO2 T01671039
Loading
Personal Weather Stations






























Interactive Weather Map
Tropical Storm Tracking
New forecast layout! Learn more

10-Day Weather Forecast

Advertisements
Track Severe Weather on mobile